createdAt,value
2023-04-23T00:03:02.592Z,15.77
2023-04-23T00:08:03.406Z,15.80
2023-04-23T00:13:02.776Z,15.78
2023-04-23T00:18:03.070Z,15.80
2023-04-23T00:23:02.250Z,15.72
2023-04-23T00:28:01.067Z,15.62
2023-04-23T00:33:00.039Z,15.63
2023-04-23T00:38:00.453Z,15.42
2023-04-23T00:42:59.561Z,15.48
2023-04-23T00:47:59.626Z,15.51
2023-04-23T00:52:58.679Z,15.48
2023-04-23T00:57:58.888Z,15.29
2023-04-23T01:02:58.574Z,15.35
2023-04-23T01:07:57.876Z,15.28
2023-04-23T01:12:58.231Z,15.24
2023-04-23T01:17:58.602Z,15.12
2023-04-23T01:22:58.792Z,15.03
2023-04-23T01:27:58.306Z,14.92
2023-04-23T01:32:57.927Z,14.80
2023-04-23T01:38:00.864Z,14.72
2023-04-23T01:43:00.379Z,14.67
2023-04-23T01:47:59.582Z,14.62
2023-04-23T01:52:59.828Z,14.54
2023-04-23T01:57:58.784Z,14.45
2023-04-23T02:02:57.688Z,14.29
2023-04-23T02:07:56.669Z,14.15
2023-04-23T02:12:56.881Z,14.05
2023-04-23T02:17:55.697Z,13.98
2023-04-23T02:22:55.062Z,13.89
2023-04-23T02:27:54.088Z,13.76
2023-04-23T02:32:54.267Z,13.72
2023-04-23T02:37:54.349Z,13.67
2023-04-23T02:42:53.102Z,13.63
2023-04-23T02:47:53.729Z,13.60
2023-04-23T02:52:52.929Z,13.60
2023-04-23T02:57:52.030Z,13.60
2023-04-23T03:02:51.181Z,13.64
2023-04-23T03:07:51.496Z,13.68
2023-04-23T03:12:50.416Z,13.70
2023-04-23T03:17:49.302Z,13.74
2023-04-23T03:22:48.207Z,13.76
2023-04-23T03:27:48.904Z,13.78
2023-04-23T03:32:52.459Z,13.78
2023-04-23T03:37:54.861Z,13.78
2023-04-23T03:43:01.145Z,13.82
2023-04-23T03:48:21.000Z,13.82
2023-04-23T03:53:20.190Z,13.86
2023-04-23T03:58:43.031Z,13.87
2023-04-23T04:03:42.090Z,13.91
2023-04-23T04:08:41.839Z,13.94
2023-04-23T04:13:40.591Z,13.98
2023-04-23T04:18:40.738Z,14.02
2023-04-23T04:23:39.996Z,14.05
2023-04-23T04:28:38.709Z,14.11
2023-04-23T04:33:39.869Z,14.15
2023-04-23T04:38:39.995Z,14.20
2023-04-23T04:43:39.150Z,14.23
2023-04-23T04:48:37.857Z,14.20
2023-04-23T04:53:37.171Z,14.23
2023-04-23T04:58:37.597Z,14.29
2023-04-23T05:03:37.939Z,14.30
2023-04-23T05:08:37.001Z,14.37
2023-04-23T05:13:37.234Z,14.43
2023-04-23T05:18:36.335Z,14.48
2023-04-23T05:23:35.711Z,14.57
2023-04-23T05:28:34.805Z,14.63
2023-04-23T05:33:46.322Z,14.70
2023-04-23T05:38:50.660Z,14.80
2023-04-23T05:43:50.821Z,14.79
2023-04-23T05:48:56.432Z,14.76
2023-04-23T05:53:57.448Z,14.77
2023-04-23T05:58:57.169Z,14.72
2023-04-23T06:03:57.990Z,14.92
2023-04-23T06:09:04.707Z,15.08
2023-04-23T06:14:04.236Z,15.21
2023-04-23T06:19:04.845Z,15.34
2023-04-23T06:24:03.910Z,15.36
2023-04-23T06:29:03.915Z,15.50
2023-04-23T06:34:15.740Z,15.50
2023-04-23T06:39:16.448Z,15.68
2023-04-23T06:44:16.149Z,15.83
2023-04-23T06:49:28.030Z,15.90
2023-04-23T06:54:32.544Z,16.14
2023-04-23T06:59:33.590Z,16.31
2023-04-23T07:04:40.208Z,16.47
2023-04-23T07:09:39.546Z,16.54
2023-04-23T07:14:45.323Z,16.75
2023-04-23T07:20:04.289Z,16.87
2023-04-23T07:25:04.453Z,17.01
2023-04-23T07:30:08.844Z,17.18
2023-04-23T07:35:15.332Z,17.23
2023-04-23T07:40:19.639Z,17.44
2023-04-23T07:45:19.539Z,17.76
2023-04-23T07:50:26.371Z,18.01
2023-04-23T07:55:26.903Z,18.05
2023-04-23T08:00:30.936Z,18.37
2023-04-23T08:05:31.483Z,18.52
2023-04-23T08:10:36.667Z,18.68
2023-04-23T08:15:38.269Z,18.98
2023-04-23T08:20:42.331Z,19.28
2023-04-23T08:25:46.516Z,19.43
2023-04-23T08:30:50.895Z,19.91
2023-04-23T08:35:58.260Z,20.36
2023-04-23T08:41:04.426Z,21.10
2023-04-23T08:46:09.361Z,21.98
2023-04-23T08:51:22.541Z,22.93
2023-04-23T08:56:23.291Z,24.20
2023-04-23T09:01:26.902Z,24.51
2023-04-23T09:06:42.745Z,25.46
2023-04-23T09:11:43.135Z,26.85
2023-04-23T09:16:50.369Z,27.36
2023-04-23T09:21:56.273Z,28.71
2023-04-23T09:26:59.301Z,29.29
2023-04-23T09:32:10.681Z,29.98
2023-04-23T09:37:19.100Z,29.83
2023-04-23T09:42:18.371Z,30.24
2023-04-23T09:47:19.307Z,31.38
2023-04-23T09:52:24.973Z,31.70
2023-04-23T09:57:28.239Z,32.07
2023-04-23T10:02:30.411Z,32.18
2023-04-23T10:07:33.945Z,32.69
2023-04-23T10:12:53.726Z,32.67
2023-04-23T10:17:54.564Z,31.82
2023-04-23T10:22:57.996Z,32.76
2023-04-23T10:27:59.477Z,33.60
2023-04-23T10:33:04.021Z,34.14
2023-04-23T10:38:04.907Z,33.61
2023-04-23T10:43:04.340Z,33.45
2023-04-23T10:48:04.528Z,33.72
2023-04-23T10:53:05.382Z,34.42
2023-04-23T10:58:06.508Z,35.49
2023-04-23T11:03:05.534Z,34.37
2023-04-23T11:08:18.799Z,35.67
2023-04-23T11:13:23.580Z,35.64
2023-04-23T11:18:25.238Z,35.77
2023-04-23T11:23:34.010Z,34.68
2023-04-23T11:28:36.470Z,34.73
2023-04-23T11:33:38.708Z,34.80
2023-04-23T11:38:38.934Z,34.07
2023-04-23T11:43:44.092Z,33.11
2023-04-23T11:48:47.391Z,32.63
2023-04-23T11:53:48.235Z,32.29
2023-04-23T11:58:49.720Z,32.10
2023-04-23T12:03:50.999Z,32.05
2023-04-23T12:08:51.239Z,32.54
2023-04-23T12:13:50.960Z,32.58
2023-04-23T12:18:55.125Z,33.18
2023-04-23T12:23:55.355Z,33.45
2023-04-23T12:28:54.571Z,33.95
2023-04-23T12:34:00.656Z,33.77
2023-04-23T12:39:23.613Z,33.67
2023-04-23T12:44:23.243Z,33.28
2023-04-23T12:49:21.960Z,33.27
2023-04-23T12:54:22.360Z,33.07
2023-04-23T12:59:22.320Z,33.24
2023-04-23T13:04:24.127Z,33.78
2023-04-23T13:09:29.787Z,34.81
2023-04-23T13:14:36.494Z,35.10
2023-04-23T13:19:39.948Z,35.66
2023-04-23T13:24:43.255Z,36.47
2023-04-23T13:29:56.193Z,36.54
2023-04-23T13:35:02.348Z,37.31
2023-04-23T13:40:10.699Z,37.70
2023-04-23T13:45:26.124Z,38.72
2023-04-23T13:50:26.814Z,38.76
2023-04-23T13:55:27.069Z,38.62
2023-04-23T14:00:28.580Z,39.25
2023-04-23T14:05:27.331Z,39.89
2023-04-23T14:10:28.170Z,39.90
2023-04-23T14:15:26.986Z,40.29
2023-04-23T14:20:25.834Z,40.71
2023-04-23T14:25:31.243Z,41.22
2023-04-23T14:30:31.684Z,39.95
2023-04-23T14:35:41.860Z,40.27
2023-04-23T14:40:43.359Z,39.55
2023-04-23T14:45:42.419Z,39.14
2023-04-23T14:50:43.561Z,39.28
2023-04-23T14:55:49.986Z,39.29
2023-04-23T15:00:49.672Z,39.35
2023-04-23T15:05:48.563Z,38.39
2023-04-23T15:10:48.952Z,38.09
2023-04-23T15:15:54.204Z,38.26
2023-04-23T15:20:57.031Z,38.51
2023-04-23T15:25:57.508Z,38.31
2023-04-23T15:30:57.144Z,37.87
2023-04-23T15:35:59.396Z,37.37
2023-04-23T15:41:02.772Z,36.83
2023-04-23T15:46:13.293Z,36.50
2023-04-23T15:51:13.757Z,36.31
2023-04-23T15:56:15.628Z,35.83
2023-04-23T16:01:21.902Z,35.52
2023-04-23T16:06:29.096Z,35.15
2023-04-23T16:11:30.785Z,34.59
2023-04-23T16:16:33.529Z,33.94
2023-04-23T16:21:32.909Z,33.46
2023-04-23T16:26:42.149Z,32.94
2023-04-23T16:31:48.829Z,32.16
2023-04-23T16:36:55.576Z,31.30
2023-04-23T16:41:59.873Z,30.60
2023-04-23T16:46:59.164Z,29.56
2023-04-23T16:51:57.920Z,28.72
2023-04-23T16:56:58.738Z,27.70
2023-04-23T17:01:57.849Z,26.67
2023-04-23T17:06:56.734Z,25.96
2023-04-23T17:11:56.826Z,25.39
2023-04-23T17:16:57.467Z,24.55
2023-04-23T17:21:56.801Z,24.20
2023-04-23T17:26:55.548Z,23.73
2023-04-23T17:31:54.409Z,23.26
2023-04-23T17:36:54.596Z,22.96
2023-04-23T17:41:53.345Z,22.57
2023-04-23T17:46:54.725Z,21.95
2023-04-23T17:51:55.266Z,21.57
2023-04-23T17:56:54.320Z,21.12
2023-04-23T18:01:53.156Z,20.95
2023-04-23T18:06:51.983Z,20.71
2023-04-23T18:11:52.314Z,20.50
2023-04-23T18:16:51.167Z,20.34
2023-04-23T18:21:50.745Z,19.82
2023-04-23T18:26:52.183Z,19.37
2023-04-23T18:31:53.898Z,19.32
2023-04-23T18:36:56.521Z,18.90
2023-04-23T18:41:56.018Z,18.68
2023-04-23T18:46:56.742Z,18.67
2023-04-23T18:51:55.817Z,18.57
2023-04-23T18:56:54.811Z,18.49
2023-04-23T19:01:53.780Z,18.31
2023-04-23T19:06:54.007Z,18.26
2023-04-23T19:11:54.921Z,18.19
2023-04-23T19:16:58.652Z,17.97
2023-04-23T19:22:00.098Z,18.04
2023-04-23T19:27:00.190Z,17.90
2023-04-23T19:31:59.182Z,17.85
2023-04-23T19:37:01.065Z,17.88
2023-04-23T19:42:02.723Z,17.73
2023-04-23T19:47:05.893Z,17.67
2023-04-23T19:52:10.034Z,17.66
2023-04-23T19:57:09.907Z,17.75
2023-04-23T20:02:12.766Z,17.71
2023-04-23T20:07:13.556Z,17.72
2023-04-23T20:12:13.960Z,17.46
2023-04-23T20:17:14.127Z,17.41
2023-04-23T20:22:14.535Z,17.23
2023-04-23T20:27:13.653Z,17.14
2023-04-23T20:32:12.804Z,17.06
2023-04-23T20:37:12.725Z,17.05
2023-04-23T20:42:13.397Z,17.08
2023-04-23T20:47:13.216Z,17.06
2023-04-23T20:52:14.028Z,17.20
2023-04-23T20:57:15.185Z,17.05
2023-04-23T21:02:15.452Z,17.06
2023-04-23T21:07:14.354Z,16.97
2023-04-23T21:12:14.623Z,17.15
2023-04-23T21:17:13.428Z,17.05
2023-04-23T21:22:12.212Z,16.97
2023-04-23T21:27:11.829Z,16.97
2023-04-23T21:32:12.056Z,16.79
2023-04-23T21:37:10.956Z,16.76
2023-04-23T21:42:09.749Z,16.43
2023-04-23T21:47:08.570Z,16.18
2023-04-23T21:52:09.557Z,16.17
2023-04-23T21:57:10.187Z,16.18
2023-04-23T22:02:09.075Z,16.31
2023-04-23T22:07:12.574Z,16.34
2023-04-23T22:12:11.972Z,16.26
2023-04-23T22:17:10.847Z,16.16
2023-04-23T22:22:10.964Z,16.09
2023-04-23T22:27:09.863Z,16.18
2023-04-23T22:32:08.663Z,16.21
2023-04-23T22:37:07.803Z,16.22
2023-04-23T22:42:08.046Z,16.23
2023-04-23T22:47:06.949Z,16.19
2023-04-23T22:52:05.880Z,15.93
2023-04-23T22:57:05.056Z,15.80
2023-04-23T23:02:05.287Z,15.59
2023-04-23T23:07:04.196Z,15.51
2023-04-23T23:13:00.889Z,15.35
2023-04-23T23:18:01.254Z,15.44
2023-04-23T23:23:00.273Z,15.60
2023-04-23T23:27:58.998Z,15.60
2023-04-23T23:32:58.033Z,15.58
2023-04-23T23:37:58.079Z,15.79
2023-04-23T23:42:57.062Z,15.97
2023-04-23T23:47:56.428Z,16.08
2023-04-23T23:52:56.780Z,16.09
2023-04-23T23:57:57.613Z,16.14
